ムンバイ の空港の天気 - METARとTAF

チャットラパティー・シヴァージー国際空港 ( VABB / BOM ) - インド ムンバイ
飛行場実況気象(Metar)
観測時間01/20 22:30 IST (01/20 17:00 UTC)
風向・風速北 3m/s
視程2200m
天気現象
少しの雲 雲底高度 3050m
気温27℃
湿度42%
気圧1015hPa
METARVABB 201700Z 01005KT 2200 FU FEW100 27/13 Q1015 NOSIG
過去の天気等 Google飛行場航空写真 Wunderground天気予報

過去48時間のMETAR

飛行場予報(TAF)
発表時間: 1/20 22:30 IST (1/20 17:00 UTC)
予報対象時間: 20日23時 IST ~ 22日5時 IST
風向・風速不定 1m/s
視程2,500m
天気現象
少しの雲 雲底高度 3,050m
21日3時 IST ~ 21日5時 IST に徐々に
風向・風速静穏
視程2,000m
天気現象煙 煙霧
21日5時 IST ~ 21日7時 IST に徐々に
視程1,500m
天気現象煙霧 もや
21日8時 IST ~ 21日10時 IST に徐々に
風向・風速東 3m/s
視程3,000m
天気現象
少しの雲 雲底高度 610m
全天の4割程度の雲 雲底高度 3,050m
21日12時 IST ~ 21日14時 IST に徐々に
風向・風速西北西 3m/s
視程3,500m
天気現象
少しの雲 雲底高度 3,050m
21日18時 IST ~ 21日20時 IST に徐々に
風向・風速北西 3m/s
視程2,500m
天気現象
22日3時 IST ~ 22日5時 IST に徐々に
風向・風速北東 2m/s
視程2,000m
天気現象煙 煙霧
TAF VABB 201700Z 2018/2124 VRB02KT 2500 FU FEW100
BECMG 2022/2024 00000KT 2000 FU HZ
BECMG 2100/2102 1500 HZ BR
BECMG 2103/2105 08006KT 3000 FU FEW020 SCT100
BECMG 2107/2109 30006KT 3500 FU FEW100
BECMG 2113/2115 32005KT 2500 FU
BECMG 2122/2124 05003KT 2000 FU HZ